Flight Track Log - Related Links

Times and Time Zones

All times are in EDT time to prevent confusion due to time zone crossing. See the CPZ5750 flight status page for this flight to view local times or setup timezone preferences in your user account.

Time Position Orientation Groundspeed Altitude Reporting Facility
EDT Latitude Longitude Course Direction KTS MPH feet Rate Location/Type
Fri 04:35:15 PM 44.8667 -93.1667 70° East 155 178 2,500  Level Minneapolis TRACON
Fri 04:35:50 PM 44.8689 -93.1261 86° East 158 182 3,000 1,113 Climbing Minneapolis Center
Fri 04:36:52 PM 44.9167 -93.0633 43° Northeast 240 276 4,300 1,694 Climbing Minneapolis Center
Fri 04:37:00 PM 44.9892 -92.8008 69° East  Level FlightAware Approximate
Fri 04:37:54 PM 44.9758 -92.9867 42° Northeast 296 341 6,500  Level Minneapolis Center
Fri 04:38:00 PM 45.0280 -92.6606 68° East  Level FlightAware Approximate
Fri 04:38:56 PM 45.0314 -92.8922 50° Northeast 313 360 9,000  Level Minneapolis Center
Fri 04:39:00 PM 45.0679 -92.5210 68° East  Level FlightAware Approximate
Fri 04:39:58 PM 45.0858 -92.7894 53° Northeast 328 377 10,800  Level Minneapolis Center
Fri 04:40:00 PM 45.1011 -92.3789 70° East  Level FlightAware Approximate
Fri 04:41:00 PM 45.1517 -92.6383 58° Northeast 374 430 13,100  Level Minneapolis Center
Fri 04:42:02 PM 45.2067 -92.5100 59° Northeast 381 438 15,200 1,984 Climbing Minneapolis Center
Fri 04:43:04 PM 45.2622 -92.3819 58° Northeast 381 438 17,200 1,632 Climbing Minneapolis Center
Fri 04:44:07 PM 45.3103 -92.2428 64° Northeast 392 451 18,600 1,440 Climbing Minneapolis Center
Fri 04:45:09 PM 45.3303 -92.0839 80° East 407 468 20,200 1,452 Climbing Minneapolis Center
Fri 04:46:11 PM 45.3536 -91.9228 78° East 413 475 21,600 1,452 Climbing Minneapolis Center
Fri 04:47:13 PM 45.3811 -91.7256 79° East 420 483 23,200 1,306 Climbing Minneapolis Center
Fri 04:48:15 PM 45.4031 -91.5561 79° East 428 493 24,300 968 Climbing Minneapolis Center
Fri 04:49:17 PM 45.4250 -91.3831 80° East 436 502 25,200 1,016 Climbing Minneapolis Center
Fri 04:50:19 PM 45.4489 -91.2044 79° East 446 513 26,400 1,065 Climbing Minneapolis Center
Fri 04:51:21 PM 45.4678 -91.0272 81° East 451 519 27,400 919 Climbing Minneapolis Center
Fri 04:52:23 PM 45.4317 -90.8442 106° East 469 540 28,300 968 Climbing Minneapolis Center
Fri 04:53:25 PM 45.4128 -90.6244 97° East 471 542 29,400 1,015 Climbing Minneapolis Center
Fri 04:54:39 PM 45.3953 -90.4408 98° East 470 541 30,600 920 Climbing Minneapolis Center
Fri 04:55:42 PM 45.3756 -90.2225 97° East 467 537 31,500 960 Climbing Minneapolis Center
Fri 04:56:44 PM 45.3572 -90.0403 98° East 468 539 32,600 968 Climbing Minneapolis Center
Fri 04:57:46 PM 45.3406 -89.8608 97° East 464 534 33,500 823 Climbing Minneapolis Center
Fri 04:58:48 PM 45.3194 -89.6469 98° East 460 529 34,300 726 Climbing Minneapolis Center
Fri 04:59:50 PM 45.3006 -89.4694 99° East 458 527 35,000 336 Climbing Minneapolis Center
Fri 05:00:53 PM 45.2828 -89.2897 98° East 461 531 35,000  Level Minneapolis Center
Fri 05:01:55 PM 45.2644 -89.1106 98° East 462 532 35,000  Level Minneapolis Center
Fri 05:02:57 PM 45.2456 -88.9328 99° East 460 529 35,000  Level Minneapolis Center
Fri 05:03:59 PM 45.2233 -88.7236 99° East 452 520 35,000  Level Minneapolis Center
Fri 05:05:01 PM 45.2044 -88.5542 99° East 457 526 35,000  Level Minneapolis Center
Fri 05:06:03 PM 45.1892 -88.4108 99° East 459 528 35,000  Level Minneapolis Center
Fri 05:07:05 PM 45.1650 -88.1978 99° East 457 526 35,000  Level Minneapolis Center
Fri 05:08:07 PM 45.1492 -88.0547 99° East 459 528 35,000  Level Minneapolis Center
Fri 05:09:09 PM 45.1203 -87.8050 99° East 459 528 35,000  Level Minneapolis Center
Fri 05:10:11 PM 45.1039 -87.6617 99° East 462 532 35,000  Level Minneapolis Center
Fri 05:11:14 PM 45.0783 -87.4472 100° East 461 531 35,000  Level Minneapolis Center
Fri 05:12:16 PM 45.0572 -87.2708 100° East 456 525 35,000  Level Minneapolis Center
Fri 05:13:30 PM 45.0350 -87.0947 100° East 456 525 35,000  Level Minneapolis Center
Fri 05:14:32 PM 45.0050 -86.8517 100° East 451 519 35,000  Level Minneapolis Center
Fri 05:15:34 PM 44.9833 -86.6778 100° East 448 516 35,000  Level Minneapolis Center
Fri 05:16:36 PM 44.9614 -86.5064 100° East 446 513 35,000  Level Minneapolis Center
Fri 05:17:38 PM 44.9394 -86.3369 100° East 442 509 35,000  Level Minneapolis Center
Fri 05:18:41 PM 44.9167 -86.1667 101° East 441 507 35,000  Level Minneapolis Center
Fri 05:19:43 PM 44.8942 -85.9964 101° East 442 509 35,000  Level Minneapolis Center
Fri 05:20:45 PM 44.8714 -85.8283 101° East 440 506 35,000  Level Minneapolis Center
Fri 05:21:47 PM 44.8444 -85.6258 101° East 439 505 35,000  Level Minneapolis Center
Fri 05:22:49 PM 44.8211 -85.4464 100° East 439 505 35,000  Level Minneapolis Center
Fri 05:23:50 PM 44.8022 -85.3144 101° East 435 501 35,000  Level Minneapolis Center
Fri 05:24:53 PM 44.7736 -85.1128 101° East 436 502 35,000  Level Minneapolis Center
Fri 05:25:55 PM 44.7503 -84.9478 101° East 434 499 35,000  Level Minneapolis Center
Fri 05:26:57 PM 44.7267 -84.7811 101° East 433 498 35,000  Level Minneapolis Center
Fri 05:27:59 PM 44.7022 -84.6153 102° East 434 499 35,000  Level Minneapolis Center
Fri 05:29:01 PM 44.6733 -84.4186 102° East 432 497 35,000  Level Minneapolis Center
Fri 05:30:03 PM 44.6494 -84.2578 102° East 426 490 35,000  Level Minneapolis Center
Fri 05:31:05 PM 44.6258 -84.0961 102° East 423 487 35,000  Level Minneapolis Center
Fri 05:32:08 PM 44.6014 -83.9347 102° East 424 488 35,000  Level Minneapolis Center
Fri 05:33:10 PM 44.5764 -83.7736 102° East 424 488 35,000  Level Minneapolis Center
Fri 05:34:12 PM 44.5519 -83.6117 102° East 425 489 35,000  Level Minneapolis Center
Fri 05:35:14 PM 44.5208 -83.4178 103° East 426 490 35,000  Level Minneapolis Center
Fri 05:36:28 PM 44.4956 -83.2556 102° East 428 493 35,000  Level Minneapolis Center
Fri 05:37:31 PM 44.4639 -83.0606 103° East 429 494 35,000  Level Minneapolis Center
Fri 05:38:33 PM 44.4378 -82.8972 103° East 431 496 35,000  Level Minneapolis Center
Fri 05:39:35 PM 44.4111 -82.7350 103° East 430 495 35,000  Level Minneapolis Center
Fri 05:40:30 PM 44.3667 -82.5500 109° East 430 495 35,000  Level Toronto Center
Fri 05:41:30 PM 44.3500 -82.3833 98° East 420 483 35,000  Level Toronto Center
Fri 05:42:30 PM 44.3167 -82.2500 109° East 420 483 35,000  Level Toronto Center
Fri 05:43:30 PM 44.2667 -82.0833 113° Southeast 430 495 35,000  Level Toronto Center
Fri 05:44:30 PM 44.2500 -81.9167 98° East 430 495 35,000  Level Toronto Center
Fri 05:45:30 PM 44.2000 -81.7667 115° Southeast 440 506 35,000  Level Toronto Center
Fri 05:46:30 PM 44.1667 -81.5833 104° East 440 506 35,000  Level Toronto Center
Fri 05:47:30 PM 44.1167 -81.4500 118° Southeast 430 495 35,000  Level Toronto Center
Fri 05:48:30 PM 44.0833 -81.2833 106° East 430 495 35,000  Level Toronto Center
Fri 05:49:30 PM 44.0333 -81.1167 113° Southeast 430 495 35,000  Level Toronto Center
Fri 05:50:30 PM 44.0000 -80.9833 109° East 440 506 35,000  Level Toronto Center
Fri 05:51:30 PM 43.9667 -80.7833 103° East 450 518 35,000  Level Toronto Center
Fri 05:52:30 PM 43.9167 -80.6500 117° Southeast 440 506 35,000  Level Toronto Center
Fri 05:53:30 PM 43.8833 -80.4833 105° East 440 506 35,000  Level Toronto Center
Fri 05:54:30 PM 43.8333 -80.3333 115° Southeast 440 506 35,000  Level Toronto Center
Fri 05:55:30 PM 43.8000 -80.1667 105° East 430 495 35,000  Level Toronto Center
Fri 05:56:30 PM 43.7500 -80.0000 113° Southeast 430 495 35,000  Level Toronto Center
Fri 05:57:30 PM 43.7167 -79.8667 109° East 430 495 35,000  Level Toronto Center
Fri 05:58:30 PM 43.6667 -79.7000 112° Southeast 430 495 35,000  Level Toronto Center
Fri 05:59:30 PM 43.6333 -79.5333 105° East 440 506 35,000  Level Toronto Center
Fri 06:00:30 PM 43.6167 -79.3500 97° East 440 506 35,000  Level Toronto Center
Fri 06:01:30 PM 43.6000 -79.2000 99° East 440 506 35,000  Level Toronto Center
Fri 06:02:30 PM 43.5833 -79.0333 98° East 440 506 35,000  Level Toronto Center
Fri 06:03:30 PM 43.5500 -78.8667 105° East 440 506 35,000 250 Level Toronto Center
Fri 06:04:30 PM 43.5333 -78.6833 97° East 450 518 35,500 650 Climbing Toronto Center
Fri 06:05:30 PM 43.5167 -78.5333 99° East 450 518 36,300 700 Climbing Toronto Center
Fri 06:06:30 PM 43.4667 -78.3667 112° Southeast 450 518 36,900 467 Climbing Toronto Center
Fri 06:07:00 PM 43.4797 -78.3031 74° East 448 516 37,000 67 Climbing Cleveland Center
Fri 06:08:00 PM 43.4556 -78.1353 101° East 448 516 37,000  Level Cleveland Center
Fri 06:09:00 PM 43.4289 -77.9619 102° East 448 516 37,000 -500 Level Cleveland Center
Fri 06:10:00 PM 43.4061 -77.7886 100° East 453 521 36,000 -1,000 Descending Cleveland Center
Fri 06:11:00 PM 43.3808 -77.6125 101° East 453 521 35,000 -1,000 Descending Cleveland Center
Fri 06:12:00 PM 43.3556 -77.4425 102° East 453 521 34,000 -963 Descending Cleveland Center
Fri 06:13:42 PM 43.3133 -77.1694 102° East 487 560 32,400 -1,000 Descending Boston Center
Fri 06:14:30 PM 43.2833 -77.0000 104° East 460 529 31,500 -1,056 Descending Toronto Center
Fri 06:15:30 PM 43.2500 -76.8167 104° East 460 529 30,500 -1,000 Descending Toronto Center
Fri 06:16:30 PM 43.2167 -76.6333 104° East 460 529 29,500 -1,000 Descending Toronto Center
Fri 06:17:30 PM 43.2000 -76.4833 99° East 460 529 28,500 -1,000 Descending Toronto Center
Fri 06:18:30 PM 43.1667 -76.3167 105° East 450 518 27,500 -955 Descending Toronto Center
Fri 06:19:42 PM 43.1567 -76.1606 95° East 446 513 26,400 -1,045 Descending Boston Center
Fri 06:20:42 PM 43.1269 -75.9794 103° East 441 507 25,200 -1,100 Descending Boston Center
Fri 06:21:42 PM 43.1025 -75.8272 102° East 430 495 24,200 -950 Descending Boston Center
Fri 06:22:42 PM 43.0756 -75.6778 104° East 414 476 23,300 -950 Descending Boston Center
Fri 06:23:42 PM 43.0506 -75.5231 102° East 414 476 22,300 -1,000 Descending Boston Center
Fri 06:24:42 PM 43.0272 -75.3800 103° East 409 471 21,300 -1,000 Descending Boston Center
Fri 06:25:42 PM 43.0017 -75.2367 104° East 395 455 20,300 -1,000 Descending Boston Center
Fri 06:26:42 PM 42.9761 -75.0936 104° East 385 443 19,300 -1,200 Descending Boston Center
Fri 06:27:42 PM 42.9539 -74.9592 103° East 379 436 17,900 -1,550 Descending Boston Center
Fri 06:28:42 PM 42.9319 -74.8222 102° East 379 436 16,200 -1,850 Descending Boston Center
Fri 06:29:42 PM 42.9075 -74.6908 104° East 368 423 14,200 -1,895 Descending Boston Center
Fri 06:30:17 PM 42.8942 -74.6222 105° East 344 396 13,200 -1,417 Descending Boston Center
Fri 06:30:54 PM 42.8867 -74.5794 103° East 347 399 12,500 -1,485 Descending Boston Center
Fri 06:31:54 PM 42.8394 -74.4278 113° Southeast 336 387 10,800 -1,600 Descending Boston Center
Fri 06:32:54 PM 42.7972 -74.3303 121° Southeast 303 349 9,300 -1,450 Descending Boston Center
Fri 06:33:54 PM 42.7572 -74.2414 121° Southeast 286 329 7,900 -1,600 Descending Boston Center
Fri 06:34:54 PM 42.7167 -74.1525 122° Southeast 281 323 6,100 -1,450 Descending Boston Center
Fri 06:35:54 PM 42.6864 -74.0867 122° Southeast 281 323 5,000 -1,050 Descending Boston Center
Fri 06:36:54 PM 42.6542 -74.0153 122° Southeast 270 311 4,000 -500 Descending Boston Center
Fri 06:37:54 PM 42.6156 -73.9325 122° Southeast 237 273 4,000 -133 Level Boston Center
Fri 06:38:24 PM 42.5994 -73.8956 121° Southeast 202 232 3,800 -600 Descending Boston Center
Fri 06:38:54 PM 42.6000 -73.8644 89° East 209 241 3,400 -867 Descending Boston Center
Fri 06:39:54 PM 42.6381 -73.8144 44° Northeast 154 177 2,500 -900 Descending Boston Center

Login

Don't have an account? Register now (free) for customized features, flight alerts, and more!